TVF44RW GMMI-LFPO
Flight info
| Callsign | TVF44RW |
|---|---|
| Flight time | N/A |
| Altitude | 36000 |
| Route | ESS UG5 KORIS DCT SVL DCT HIJ DCT RUSEM/N0442F380 DCT SOTUK DCT USOKO DCT TLD DCT SIE DCT EDIGO DCT DGO DCT ABRIX DCT CNA DCT TUDRA/N0395F280 DCT BEVOL UT158 AMB |
| Aircraft | B738/M-SDFGHIJ1RWXY/LB1 |
Departure
| Time | 2026-04-26 15:25 |
|---|---|
| Airport | Essaouira-Mogador Airport (GMMI) |
Arrival
| Time | N/A |
|---|---|
| Airport | Paris-Orly Airport (LFPO) |
| Time | Latitude | Longitude | Altitude | Speed | Heading |
|---|---|---|---|---|---|
| 2026-04-26 14:56 | 31.40353 | -9.68749 | 392 ft | 0 kts | 158° |
| 2026-04-26 15:20 | 31.40352 | -9.68748 | 392 ft | 1 kts | 157° |
| 2026-04-26 15:20 | 31.40347 | -9.68720 | 392 ft | 6 kts | 78° |
| 2026-04-26 15:21 | 31.40379 | -9.68699 | 392 ft | 6 kts | 358° |
| 2026-04-26 15:21 | 31.40416 | -9.68713 | 392 ft | 6 kts | 339° |
| 2026-04-26 15:21 | 31.40463 | -9.68734 | 392 ft | 8 kts | 339° |
| 2026-04-26 15:21 | 31.40516 | -9.68736 | 392 ft | 8 kts | 25° |
| 2026-04-26 15:22 | 31.40547 | -9.68687 | 393 ft | 8 kts | 66° |
| 2026-04-26 15:22 | 31.40566 | -9.68631 | 393 ft | 7 kts | 68° |
| 2026-04-26 15:22 | 31.40616 | -9.68614 | 394 ft | 10 kts | 340° |
| 2026-04-26 15:22 | 31.40689 | -9.68647 | 394 ft | 13 kts | 339° |
| 2026-04-26 15:23 | 31.40785 | -9.68691 | 395 ft | 17 kts | 338° |
| 2026-04-26 15:23 | 31.40900 | -9.68741 | 393 ft | 18 kts | 355° |
| 2026-04-26 15:23 | 31.40992 | -9.68749 | 390 ft | 9 kts | 302° |
| 2026-04-26 15:23 | 31.40987 | -9.68772 | 392 ft | 2 kts | 209° |
| 2026-04-26 15:24 | 31.40959 | -9.68770 | 396 ft | 5 kts | 158° |
| 2026-04-26 15:24 | 31.40957 | -9.68769 | 396 ft | 0 kts | 158° |
| 2026-04-26 15:24 | 31.40955 | -9.68768 | 396 ft | 2 kts | 158° |
| 2026-04-26 15:24 | 31.40779 | -9.68688 | 392 ft | 63 kts | 159° |
| 2026-04-26 15:25 | 31.40143 | -9.68400 | 392 ft | 131 kts | 159° |
| 2026-04-26 15:25 | 31.39482 | -9.68102 | 389 ft | 170 kts | 159° |
| 2026-04-26 15:25 | 31.37904 | -9.67331 | 1034 ft | 188 kts | 154° |
| 2026-04-26 15:25 | 31.36671 | -9.66762 | 1802 ft | 195 kts | 157° |
| 2026-04-26 15:26 | 31.35381 | -9.66321 | 2500 ft | 201 kts | 156° |
| 2026-04-26 15:26 | 31.34212 | -9.65377 | 2735 ft | 212 kts | 116° |
| 2026-04-26 15:26 | 31.33914 | -9.63740 | 3070 ft | 208 kts | 74° |
| 2026-04-26 15:26 | 31.34669 | -9.62267 | 3298 ft | 228 kts | 39° |
| 2026-04-26 15:27 | 31.36145 | -9.61397 | 3602 ft | 250 kts | 26° |
| 2026-04-26 15:27 | 31.37756 | -9.60580 | 4329 ft | 255 kts | 26° |
| 2026-04-26 15:27 | 31.39394 | -9.59652 | 4878 ft | 269 kts | 27° |
| 2026-04-26 15:27 | 31.40508 | -9.58988 | 5328 ft | 273 kts | 28° |
| 2026-04-26 15:28 | 31.42734 | -9.57392 | 6114 ft | 288 kts | 34° |
| 2026-04-26 15:28 | 31.44400 | -9.56040 | 6757 ft | 295 kts | 35° |
| 2026-04-26 15:28 | 31.45518 | -9.55116 | 7208 ft | 298 kts | 35° |
| 2026-04-26 15:28 | 31.47219 | -9.53709 | 7988 ft | 299 kts | 36° |
| 2026-04-26 15:29 | 31.48920 | -9.52305 | 8804 ft | 301 kts | 36° |
| 2026-04-26 15:29 | 31.50651 | -9.50881 | 9477 ft | 307 kts | 36° |
| 2026-04-26 15:29 | 31.54223 | -9.47953 | 10472 ft | 331 kts | 36° |
| 2026-04-26 15:30 | 31.58206 | -9.44696 | 11221 ft | 359 kts | 36° |
| 2026-04-26 15:30 | 31.60269 | -9.43013 | 11885 ft | 362 kts | 36° |
| 2026-04-26 15:30 | 31.62335 | -9.41328 | 12720 ft | 362 kts | 36° |
| 2026-04-26 15:31 | 31.64425 | -9.39621 | 13336 ft | 369 kts | 37° |
| 2026-04-26 15:31 | 31.68667 | -9.36156 | 14703 ft | 376 kts | 36° |
| 2026-04-26 15:31 | 31.70815 | -9.34399 | 15461 ft | 376 kts | 36° |
| 2026-04-26 15:32 | 31.74424 | -9.31446 | 16485 ft | 385 kts | 36° |
| 2026-04-26 15:32 | 31.77355 | -9.29047 | 17484 ft | 387 kts | 36° |
| 2026-04-26 15:32 | 31.79577 | -9.27225 | 18063 ft | 392 kts | 36° |
| 2026-04-26 15:33 | 31.81820 | -9.25385 | 18657 ft | 395 kts | 36° |
| 2026-04-26 15:33 | 31.84086 | -9.23526 | 19206 ft | 398 kts | 36° |
| 2026-04-26 15:33 | 31.86364 | -9.21656 | 19788 ft | 401 kts | 36° |
| 2026-04-26 15:33 | 31.88662 | -9.19768 | 20341 ft | 404 kts | 35° |
| 2026-04-26 15:34 | 31.90978 | -9.17864 | 20901 ft | 408 kts | 35° |
| 2026-04-26 15:34 | 31.93321 | -9.15936 | 21370 ft | 413 kts | 35° |
| 2026-04-26 15:34 | 31.95684 | -9.13992 | 21931 ft | 416 kts | 35° |
| 2026-04-26 15:34 | 31.98069 | -9.12027 | 22418 ft | 420 kts | 35° |
| 2026-04-26 15:35 | 32.00472 | -9.10047 | 22961 ft | 423 kts | 35° |
| 2026-04-26 15:35 | 32.02893 | -9.08050 | 23452 ft | 426 kts | 36° |
| 2026-04-26 15:35 | 32.05318 | -9.06048 | 23944 ft | 427 kts | 36° |
| 2026-04-26 15:35 | 32.07762 | -9.04030 | 24356 ft | 430 kts | 36° |
| 2026-04-26 15:36 | 32.10224 | -9.01995 | 24760 ft | 434 kts | 36° |
| 2026-04-26 15:36 | 32.12702 | -8.99945 | 25192 ft | 436 kts | 36° |
| 2026-04-26 15:36 | 32.15192 | -8.97884 | 25595 ft | 439 kts | 36° |
| 2026-04-26 15:36 | 32.17694 | -8.95812 | 26038 ft | 440 kts | 36° |
| 2026-04-26 15:37 | 32.20210 | -8.93727 | 26406 ft | 443 kts | 36° |
| 2026-04-26 15:37 | 32.22739 | -8.91630 | 26821 ft | 445 kts | 36° |
| 2026-04-26 15:37 | 32.25274 | -8.89505 | 27143 ft | 449 kts | 37° |
| 2026-04-26 15:37 | 32.27762 | -8.87257 | 27553 ft | 450 kts | 39° |
| 2026-04-26 15:38 | 32.30216 | -8.84938 | 27891 ft | 453 kts | 40° |
| 2026-04-26 15:38 | 32.32665 | -8.82585 | 28323 ft | 454 kts | 40° |
| 2026-04-26 15:38 | 32.35120 | -8.80224 | 28663 ft | 457 kts | 40° |
| 2026-04-26 15:38 | 32.37597 | -8.77852 | 28998 ft | 459 kts | 40° |
| 2026-04-26 15:39 | 32.40059 | -8.75505 | 29318 ft | 462 kts | 40° |
| 2026-04-26 15:39 | 32.42568 | -8.73123 | 29660 ft | 464 kts | 40° |
| 2026-04-26 15:39 | 32.45094 | -8.70727 | 29992 ft | 465 kts | 40° |
| 2026-04-26 15:39 | 32.46802 | -8.69109 | 30165 ft | 467 kts | 40° |
| 2026-04-26 15:40 | 32.50156 | -8.65929 | 30690 ft | 465 kts | 40° |
| 2026-04-26 15:40 | 32.52676 | -8.63538 | 31056 ft | 464 kts | 40° |
| 2026-04-26 15:40 | 32.55191 | -8.61148 | 31440 ft | 463 kts | 40° |
| 2026-04-26 15:40 | 32.57695 | -8.58767 | 31813 ft | 461 kts | 40° |
| 2026-04-26 15:41 | 32.60187 | -8.56396 | 32249 ft | 459 kts | 40° |
| 2026-04-26 15:41 | 32.62670 | -8.54031 | 32680 ft | 456 kts | 40° |
| 2026-04-26 15:41 | 32.65133 | -8.51683 | 33084 ft | 454 kts | 40° |
| 2026-04-26 15:41 | 32.67593 | -8.49336 | 33463 ft | 452 kts | 40° |
| 2026-04-26 15:42 | 32.70040 | -8.46999 | 33821 ft | 451 kts | 40° |
| 2026-04-26 15:42 | 32.72481 | -8.44667 | 34166 ft | 449 kts | 40° |
| 2026-04-26 15:42 | 32.74918 | -8.42338 | 34340 ft | 452 kts | 39° |
| 2026-04-26 15:42 | 32.77374 | -8.39989 | 34498 ft | 454 kts | 40° |
| 2026-04-26 15:43 | 32.79840 | -8.37631 | 34708 ft | 455 kts | 39° |
| 2026-04-26 15:43 | 32.82300 | -8.35278 | 34993 ft | 454 kts | 39° |
| 2026-04-26 15:43 | 32.87239 | -8.30548 | 35316 ft | 459 kts | 39° |
| 2026-04-26 15:44 | 32.89720 | -8.28168 | 35604 ft | 457 kts | 39° |